sensor_id;sensor_type;location;lat;lon;timestamp;P1;durP1;ratioP1;P2;durP2;ratioP2
71558;SDS011;59382;43.852;25.952;2023-12-07T00:00:31;7.85;;;4.78;;
71558;SDS011;59382;43.852;25.952;2023-12-07T00:02:57;8.93;;;4.90;;
71558;SDS011;59382;43.852;25.952;2023-12-07T00:05:24;8.38;;;4.97;;
71558;SDS011;59382;43.852;25.952;2023-12-07T00:07:50;9.88;;;5.28;;
71558;SDS011;59382;43.852;25.952;2023-12-07T00:10:15;8.82;;;4.88;;
71558;SDS011;59382;43.852;25.952;2023-12-07T00:12:41;11.15;;;5.57;;
71558;SDS011;59382;43.852;25.952;2023-12-07T00:15:07;8.43;;;5.28;;
71558;SDS011;59382;43.852;25.952;2023-12-07T00:17:33;6.28;;;4.43;;
71558;SDS011;59382;43.852;25.952;2023-12-07T00:19:58;7.53;;;5.07;;
71558;SDS011;59382;43.852;25.952;2023-12-07T00:22:24;5.95;;;4.13;;
71558;SDS011;59382;43.852;25.952;2023-12-07T00:24:51;9.30;;;5.57;;
71558;SDS011;59382;43.852;25.952;2023-12-07T00:27:17;10.50;;;4.97;;
71558;SDS011;59382;43.852;25.952;2023-12-07T00:29:43;9.43;;;4.97;;
71558;SDS011;59382;43.852;25.952;2023-12-07T00:32:09;8.68;;;4.45;;
71558;SDS011;59382;43.852;25.952;2023-12-07T00:34:37;5.60;;;4.15;;
71558;SDS011;59382;43.852;25.952;2023-12-07T00:37:03;10.02;;;5.05;;
71558;SDS011;59382;43.852;25.952;2023-12-07T00:39:37;8.02;;;4.57;;
71558;SDS011;59382;43.852;25.952;2023-12-07T00:42:06;9.13;;;4.20;;
71558;SDS011;59382;43.852;25.952;2023-12-07T00:44:31;7.05;;;4.72;;
71558;SDS011;59382;43.852;25.952;2023-12-07T00:46:57;7.68;;;5.35;;
71558;SDS011;59382;43.852;25.952;2023-12-07T00:49:22;9.30;;;5.28;;
71558;SDS011;59382;43.852;25.952;2023-12-07T00:51:48;10.20;;;5.57;;
71558;SDS011;59382;43.852;25.952;2023-12-07T00:54:13;11.38;;;5.88;;
71558;SDS011;59382;43.852;25.952;2023-12-07T00:56:39;10.00;;;5.25;;
71558;SDS011;59382;43.852;25.952;2023-12-07T00:59:04;16.33;;;6.47;;
71558;SDS011;59382;43.852;25.952;2023-12-07T01:01:30;8.40;;;6.53;;
71558;SDS011;59382;43.852;25.952;2023-12-07T01:03:55;9.15;;;5.25;;
71558;SDS011;59382;43.852;25.952;2023-12-07T01:06:21;5.50;;;4.32;;
71558;SDS011;59382;43.852;25.952;2023-12-07T01:08:46;7.88;;;4.85;;
71558;SDS011;59382;43.852;25.952;2023-12-07T01:11:12;9.57;;;5.80;;
71558;SDS011;59382;43.852;25.952;2023-12-07T01:13:37;9.68;;;5.20;;
71558;SDS011;59382;43.852;25.952;2023-12-07T01:16:03;13.43;;;5.85;;
71558;SDS011;59382;43.852;25.952;2023-12-07T01:18:29;10.30;;;5.57;;
71558;SDS011;59382;43.852;25.952;2023-12-07T01:20:54;9.15;;;5.88;;
71558;SDS011;59382;43.852;25.952;2023-12-07T01:23:19;9.80;;;5.28;;
71558;SDS011;59382;43.852;25.952;2023-12-07T01:25:45;11.27;;;5.95;;
71558;SDS011;59382;43.852;25.952;2023-12-07T01:28:11;8.00;;;4.95;;
71558;SDS011;59382;43.852;25.952;2023-12-07T01:30:38;7.60;;;3.97;;
71558;SDS011;59382;43.852;25.952;2023-12-07T01:33:04;7.70;;;5.28;;
71558;SDS011;59382;43.852;25.952;2023-12-07T01:35:29;7.93;;;5.13;;
71558;SDS011;59382;43.852;25.952;2023-12-07T01:37:55;10.43;;;4.63;;
71558;SDS011;59382;43.852;25.952;2023-12-07T01:40:20;8.07;;;5.10;;
71558;SDS011;59382;43.852;25.952;2023-12-07T01:42:49;9.10;;;4.88;;
71558;SDS011;59382;43.852;25.952;2023-12-07T01:45:16;14.70;;;6.43;;
71558;SDS011;59382;43.852;25.952;2023-12-07T01:47:42;12.30;;;5.22;;
71558;SDS011;59382;43.852;25.952;2023-12-07T01:50:09;7.60;;;4.57;;
71558;SDS011;59382;43.852;25.952;2023-12-07T01:52:35;7.68;;;4.45;;
71558;SDS011;59382;43.852;25.952;2023-12-07T01:55:03;8.93;;;4.78;;
71558;SDS011;59382;43.852;25.952;2023-12-07T01:57:30;11.70;;;4.38;;
71558;SDS011;59382;43.852;25.952;2023-12-07T01:59:55;11.40;;;5.28;;
71558;SDS011;59382;43.852;25.952;2023-12-07T02:02:21;7.82;;;4.82;;
71558;SDS011;59382;43.852;25.952;2023-12-07T02:04:47;7.68;;;4.53;;
71558;SDS011;59382;43.852;25.952;2023-12-07T02:07:12;9.25;;;4.93;;
71558;SDS011;59382;43.852;25.952;2023-12-07T02:09:41;10.75;;;5.03;;
71558;SDS011;59382;43.852;25.952;2023-12-07T02:12:07;7.07;;;4.72;;
71558;SDS011;59382;43.852;25.952;2023-12-07T02:14:33;9.73;;;5.68;;
71558;SDS011;59382;43.852;25.952;2023-12-07T02:20:19;7.13;;;5.18;;
71558;SDS011;59382;43.852;25.952;2023-12-07T02:22:54;5.68;;;3.88;;
71558;SDS011;59382;43.852;25.952;2023-12-07T02:25:26;6.68;;;3.78;;
71558;SDS011;59382;43.852;25.952;2023-12-07T02:28:00;6.57;;;4.57;;
71558;SDS011;59382;43.852;25.952;2023-12-07T02:30:26;5.93;;;4.38;;
71558;SDS011;59382;43.852;25.952;2023-12-07T02:32:51;8.68;;;5.03;;
71558;SDS011;59382;43.852;25.952;2023-12-07T02:35:20;9.40;;;5.15;;
71558;SDS011;59382;43.852;25.952;2023-12-07T02:37:46;6.55;;;4.10;;
71558;SDS011;59382;43.852;25.952;2023-12-07T02:40:21;7.57;;;4.75;;
71558;SDS011;59382;43.852;25.952;2023-12-07T02:42:48;7.03;;;4.47;;
71558;SDS011;59382;43.852;25.952;2023-12-07T02:45:18;7.47;;;3.80;;
71558;SDS011;59382;43.852;25.952;2023-12-07T02:47:43;5.85;;;4.22;;
71558;SDS011;59382;43.852;25.952;2023-12-07T02:50:10;5.20;;;3.88;;
71558;SDS011;59382;43.852;25.952;2023-12-07T02:52:37;5.45;;;4.13;;
71558;SDS011;59382;43.852;25.952;2023-12-07T02:55:03;9.73;;;4.10;;
71558;SDS011;59382;43.852;25.952;2023-12-07T02:57:29;6.45;;;4.35;;
71558;SDS011;59382;43.852;25.952;2023-12-07T02:59:55;5.45;;;3.10;;
71558;SDS011;59382;43.852;25.952;2023-12-07T03:02:22;5.20;;;3.58;;
71558;SDS011;59382;43.852;25.952;2023-12-07T03:04:47;6.75;;;3.58;;
71558;SDS011;59382;43.852;25.952;2023-12-07T03:07:13;5.35;;;3.05;;
71558;SDS011;59382;43.852;25.952;2023-12-07T03:09:39;4.53;;;3.33;;
71558;SDS011;59382;43.852;25.952;2023-12-07T03:12:07;5.68;;;3.63;;
71558;SDS011;59382;43.852;25.952;2023-12-07T03:14:32;5.25;;;3.55;;
71558;SDS011;59382;43.852;25.952;2023-12-07T03:16:58;4.40;;;3.38;;
71558;SDS011;59382;43.852;25.952;2023-12-07T03:19:24;4.13;;;3.05;;
71558;SDS011;59382;43.852;25.952;2023-12-07T03:21:49;4.15;;;2.92;;
71558;SDS011;59382;43.852;25.952;2023-12-07T03:24:15;5.57;;;2.92;;
71558;SDS011;59382;43.852;25.952;2023-12-07T03:26:40;4.97;;;2.85;;
71558;SDS011;59382;43.852;25.952;2023-12-07T03:29:09;4.63;;;3.30;;
71558;SDS011;59382;43.852;25.952;2023-12-07T03:31:35;5.85;;;3.38;;
71558;SDS011;59382;43.852;25.952;2023-12-07T03:34:01;3.75;;;2.88;;
71558;SDS011;59382;43.852;25.952;2023-12-07T03:36:27;4.88;;;3.15;;
71558;SDS011;59382;43.852;25.952;2023-12-07T03:38:53;3.28;;;2.58;;
71558;SDS011;59382;43.852;25.952;2023-12-07T03:41:18;4.78;;;2.65;;
71558;SDS011;59382;43.852;25.952;2023-12-07T03:43:44;4.80;;;2.88;;
71558;SDS011;59382;43.852;25.952;2023-12-07T03:46:09;4.35;;;2.58;;
71558;SDS011;59382;43.852;25.952;2023-12-07T03:48:35;5.57;;;3.65;;
71558;SDS011;59382;43.852;25.952;2023-12-07T03:51:01;6.95;;;3.63;;
71558;SDS011;59382;43.852;25.952;2023-12-07T03:53:27;5.40;;;3.38;;
71558;SDS011;59382;43.852;25.952;2023-12-07T03:55:59;3.05;;;2.72;;
71558;SDS011;59382;43.852;25.952;2023-12-07T03:58:24;4.50;;;3.58;;
71558;SDS011;59382;43.852;25.952;2023-12-07T04:00:52;3.20;;;2.67;;
71558;SDS011;59382;43.852;25.952;2023-12-07T04:03:17;5.15;;;2.97;;
71558;SDS011;59382;43.852;25.952;2023-12-07T04:05:45;6.18;;;2.63;;
71558;SDS011;59382;43.852;25.952;2023-12-07T04:08:11;6.90;;;3.65;;
71558;SDS011;59382;43.852;25.952;2023-12-07T04:10:37;5.28;;;2.85;;
71558;SDS011;59382;43.852;25.952;2023-12-07T04:13:05;2.92;;;2.63;;
71558;SDS011;59382;43.852;25.952;2023-12-07T04:15:36;5.07;;;2.85;;
71558;SDS011;59382;43.852;25.952;2023-12-07T04:18:02;5.60;;;2.83;;
71558;SDS011;59382;43.852;25.952;2023-12-07T04:20:28;5.15;;;3.22;;
71558;SDS011;59382;43.852;25.952;2023-12-07T04:22:54;6.57;;;3.58;;
71558;SDS011;59382;43.852;25.952;2023-12-07T04:25:19;4.68;;;3.33;;
71558;SDS011;59382;43.852;25.952;2023-12-07T04:27:47;5.43;;;3.40;;
71558;SDS011;59382;43.852;25.952;2023-12-07T04:30:15;3.85;;;3.08;;
71558;SDS011;59382;43.852;25.952;2023-12-07T04:32:41;4.78;;;2.58;;
71558;SDS011;59382;43.852;25.952;2023-12-07T04:35:07;4.20;;;3.00;;
71558;SDS011;59382;43.852;25.952;2023-12-07T04:37:33;4.20;;;2.03;;
71558;SDS011;59382;43.852;25.952;2023-12-07T04:39:59;4.43;;;3.13;;
71558;SDS011;59382;43.852;25.952;2023-12-07T04:42:27;5.32;;;2.92;;
71558;SDS011;59382;43.852;25.952;2023-12-07T04:44:56;3.35;;;2.60;;
71558;SDS011;59382;43.852;25.952;2023-12-07T04:47:21;3.83;;;2.30;;
71558;SDS011;59382;43.852;25.952;2023-12-07T04:49:48;6.80;;;2.60;;
71558;SDS011;59382;43.852;25.952;2023-12-07T04:52:14;3.80;;;2.50;;
71558;SDS011;59382;43.852;25.952;2023-12-07T04:54:39;3.15;;;2.20;;
71558;SDS011;59382;43.852;25.952;2023-12-07T04:57:05;3.55;;;2.20;;
71558;SDS011;59382;43.852;25.952;2023-12-07T04:59:31;4.80;;;2.30;;
71558;SDS011;59382;43.852;25.952;2023-12-07T05:01:56;5.50;;;2.58;;
71558;SDS011;59382;43.852;25.952;2023-12-07T05:04:22;2.83;;;1.95;;
71558;SDS011;59382;43.852;25.952;2023-12-07T05:06:47;3.65;;;2.58;;
71558;SDS011;59382;43.852;25.952;2023-12-07T05:09:13;3.97;;;2.47;;
71558;SDS011;59382;43.852;25.952;2023-12-07T05:11:39;2.92;;;2.47;;
71558;SDS011;59382;43.852;25.952;2023-12-07T05:14:04;3.60;;;2.13;;
71558;SDS011;59382;43.852;25.952;2023-12-07T05:16:30;3.42;;;2.30;;
71558;SDS011;59382;43.852;25.952;2023-12-07T05:18:55;4.95;;;2.63;;
71558;SDS011;59382;43.852;25.952;2023-12-07T05:21:21;3.90;;;2.30;;
71558;SDS011;59382;43.852;25.952;2023-12-07T05:23:47;3.95;;;2.33;;
71558;SDS011;59382;43.852;25.952;2023-12-07T05:26:13;3.70;;;2.00;;
71558;SDS011;59382;43.852;25.952;2023-12-07T05:28:40;3.58;;;2.28;;
71558;SDS011;59382;43.852;25.952;2023-12-07T05:31:15;2.10;;;1.90;;
71558;SDS011;59382;43.852;25.952;2023-12-07T05:33:41;3.78;;;1.90;;
71558;SDS011;59382;43.852;25.952;2023-12-07T05:36:07;3.53;;;2.15;;
71558;SDS011;59382;43.852;25.952;2023-12-07T05:38:40;2.22;;;1.98;;
71558;SDS011;59382;43.852;25.952;2023-12-07T05:41:05;4.10;;;2.45;;
71558;SDS011;59382;43.852;25.952;2023-12-07T05:43:33;2.53;;;1.63;;
71558;SDS011;59382;43.852;25.952;2023-12-07T05:45:59;4.50;;;2.53;;
71558;SDS011;59382;43.852;25.952;2023-12-07T05:48:25;3.80;;;2.38;;
71558;SDS011;59382;43.852;25.952;2023-12-07T05:50:51;2.03;;;1.58;;
71558;SDS011;59382;43.852;25.952;2023-12-07T05:53:16;3.90;;;2.35;;
71558;SDS011;59382;43.852;25.952;2023-12-07T05:55:42;5.78;;;2.70;;
71558;SDS011;59382;43.852;25.952;2023-12-07T05:58:08;5.57;;;1.80;;
71558;SDS011;59382;43.852;25.952;2023-12-07T06:00:33;4.85;;;2.92;;
71558;SDS011;59382;43.852;25.952;2023-12-07T06:03:02;6.63;;;2.60;;
71558;SDS011;59382;43.852;25.952;2023-12-07T06:05:28;3.50;;;2.60;;
71558;SDS011;59382;43.852;25.952;2023-12-07T06:07:53;3.13;;;2.35;;
71558;SDS011;59382;43.852;25.952;2023-12-07T06:10:20;2.10;;;1.70;;
71558;SDS011;59382;43.852;25.952;2023-12-07T06:12:49;2.88;;;1.75;;
71558;SDS011;59382;43.852;25.952;2023-12-07T06:15:14;2.78;;;1.95;;
71558;SDS011;59382;43.852;25.952;2023-12-07T06:17:40;1.85;;;1.67;;
71558;SDS011;59382;43.852;25.952;2023-12-07T06:20:08;4.70;;;3.05;;
71558;SDS011;59382;43.852;25.952;2023-12-07T06:22:37;6.18;;;2.33;;
71558;SDS011;59382;43.852;25.952;2023-12-07T06:25:03;3.25;;;2.25;;
71558;SDS011;59382;43.852;25.952;2023-12-07T06:27:35;5.47;;;2.40;;
71558;SDS011;59382;43.852;25.952;2023-12-07T06:30:01;5.05;;;2.92;;
71558;SDS011;59382;43.852;25.952;2023-12-07T06:32:31;4.75;;;2.70;;
71558;SDS011;59382;43.852;25.952;2023-12-07T06:34:57;4.90;;;2.80;;
71558;SDS011;59382;43.852;25.952;2023-12-07T06:37:23;4.32;;;2.72;;
71558;SDS011;59382;43.852;25.952;2023-12-07T06:39:48;3.65;;;2.30;;
71558;SDS011;59382;43.852;25.952;2023-12-07T06:42:14;3.15;;;2.53;;
71558;SDS011;59382;43.852;25.952;2023-12-07T06:44:43;3.15;;;2.65;;
71558;SDS011;59382;43.852;25.952;2023-12-07T06:47:09;3.55;;;2.25;;
71558;SDS011;59382;43.852;25.952;2023-12-07T06:49:34;3.75;;;2.53;;
71558;SDS011;59382;43.852;25.952;2023-12-07T06:52:01;3.58;;;2.78;;
71558;SDS011;59382;43.852;25.952;2023-12-07T06:54:26;3.47;;;2.33;;
71558;SDS011;59382;43.852;25.952;2023-12-07T06:56:52;3.92;;;2.63;;
71558;SDS011;59382;43.852;25.952;2023-12-07T06:59:18;3.60;;;2.47;;
71558;SDS011;59382;43.852;25.952;2023-12-07T07:01:45;3.72;;;2.55;;
71558;SDS011;59382;43.852;25.952;2023-12-07T07:04:11;4.47;;;2.90;;
71558;SDS011;59382;43.852;25.952;2023-12-07T07:06:36;4.68;;;3.30;;
71558;SDS011;59382;43.852;25.952;2023-12-07T07:09:03;4.22;;;3.10;;
71558;SDS011;59382;43.852;25.952;2023-12-07T07:11:30;2.92;;;2.63;;
71558;SDS011;59382;43.852;25.952;2023-12-07T07:13:55;3.90;;;2.00;;
71558;SDS011;59382;43.852;25.952;2023-12-07T07:16:21;3.30;;;2.22;;
71558;SDS011;59382;43.852;25.952;2023-12-07T07:18:46;2.60;;;2.25;;
71558;SDS011;59382;43.852;25.952;2023-12-07T07:21:12;7.43;;;3.60;;
71558;SDS011;59382;43.852;25.952;2023-12-07T07:23:37;4.47;;;3.20;;
71558;SDS011;59382;43.852;25.952;2023-12-07T07:26:06;6.45;;;3.53;;
71558;SDS011;59382;43.852;25.952;2023-12-07T07:28:31;5.95;;;3.28;;
71558;SDS011;59382;43.852;25.952;2023-12-07T07:30:57;5.13;;;2.95;;
71558;SDS011;59382;43.852;25.952;2023-12-07T07:33:26;2.83;;;2.00;;
71558;SDS011;59382;43.852;25.952;2023-12-07T07:35:51;3.88;;;2.85;;
71558;SDS011;59382;43.852;25.952;2023-12-07T07:38:17;2.90;;;2.35;;
71558;SDS011;59382;43.852;25.952;2023-12-07T07:40:42;2.55;;;2.05;;
71558;SDS011;59382;43.852;25.952;2023-12-07T07:43:10;3.45;;;2.47;;
71558;SDS011;59382;43.852;25.952;2023-12-07T07:45:36;5.15;;;2.33;;
71558;SDS011;59382;43.852;25.952;2023-12-07T07:48:01;3.40;;;2.33;;
71558;SDS011;59382;43.852;25.952;2023-12-07T07:50:27;3.60;;;2.30;;
71558;SDS011;59382;43.852;25.952;2023-12-07T07:52:56;3.47;;;2.15;;
71558;SDS011;59382;43.852;25.952;2023-12-07T07:55:21;4.97;;;3.20;;
71558;SDS011;59382;43.852;25.952;2023-12-07T07:57:49;3.63;;;2.75;;
71558;SDS011;59382;43.852;25.952;2023-12-07T08:00:15;4.40;;;2.95;;
71558;SDS011;59382;43.852;25.952;2023-12-07T08:02:42;3.10;;;2.13;;
71558;SDS011;59382;43.852;25.952;2023-12-07T08:05:10;4.78;;;2.97;;
71558;SDS011;59382;43.852;25.952;2023-12-07T08:07:36;5.82;;;2.80;;
71558;SDS011;59382;43.852;25.952;2023-12-07T08:10:05;3.20;;;2.28;;
71558;SDS011;59382;43.852;25.952;2023-12-07T08:12:32;4.53;;;3.05;;
71558;SDS011;59382;43.852;25.952;2023-12-07T08:14:58;6.70;;;3.70;;
71558;SDS011;59382;43.852;25.952;2023-12-07T08:17:27;3.65;;;2.72;;
71558;SDS011;59382;43.852;25.952;2023-12-07T08:19:53;7.63;;;4.57;;
71558;SDS011;59382;43.852;25.952;2023-12-07T08:22:19;7.88;;;4.47;;
71558;SDS011;59382;43.852;25.952;2023-12-07T08:24:45;16.35;;;6.18;;
71558;SDS011;59382;43.852;25.952;2023-12-07T08:27:11;12.93;;;6.40;;
71558;SDS011;59382;43.852;25.952;2023-12-07T08:29:37;5.80;;;3.13;;
71558;SDS011;59382;43.852;25.952;2023-12-07T08:32:05;8.98;;;4.38;;
71558;SDS011;59382;43.852;25.952;2023-12-07T08:34:31;6.53;;;3.78;;
71558;SDS011;59382;43.852;25.952;2023-12-07T08:36:59;3.58;;;3.28;;
71558;SDS011;59382;43.852;25.952;2023-12-07T08:39:25;8.63;;;4.15;;
71558;SDS011;59382;43.852;25.952;2023-12-07T08:41:53;3.35;;;2.70;;
71558;SDS011;59382;43.852;25.952;2023-12-07T08:44:27;3.20;;;2.67;;
71558;SDS011;59382;43.852;25.952;2023-12-07T08:46:55;6.65;;;3.15;;
71558;SDS011;59382;43.852;25.952;2023-12-07T08:49:21;4.63;;;3.42;;
71558;SDS011;59382;43.852;25.952;2023-12-07T08:51:48;9.18;;;4.97;;
71558;SDS011;59382;43.852;25.952;2023-12-07T08:54:16;7.78;;;4.55;;
71558;SDS011;59382;43.852;25.952;2023-12-07T08:56:45;33.88;;;13.65;;
71558;SDS011;59382;43.852;25.952;2023-12-07T08:59:10;11.65;;;5.80;;
71558;SDS011;59382;43.852;25.952;2023-12-07T09:01:36;5.70;;;4.20;;
71558;SDS011;59382;43.852;25.952;2023-12-07T09:04:02;11.82;;;4.65;;
71558;SDS011;59382;43.852;25.952;2023-12-07T09:06:28;5.53;;;4.32;;
71558;SDS011;59382;43.852;25.952;2023-12-07T09:08:54;7.25;;;2.45;;
71558;SDS011;59382;43.852;25.952;2023-12-07T09:11:22;5.32;;;4.05;;
71558;SDS011;59382;43.852;25.952;2023-12-07T09:13:48;5.10;;;3.60;;
71558;SDS011;59382;43.852;25.952;2023-12-07T09:16:15;7.32;;;4.78;;
71558;SDS011;59382;43.852;25.952;2023-12-07T09:18:41;8.15;;;4.82;;
71558;SDS011;59382;43.852;25.952;2023-12-07T09:21:08;6.10;;;4.93;;
71558;SDS011;59382;43.852;25.952;2023-12-07T09:23:33;4.47;;;3.13;;
71558;SDS011;59382;43.852;25.952;2023-12-07T09:26:00;6.88;;;3.92;;
71558;SDS011;59382;43.852;25.952;2023-12-07T09:28:28;3.63;;;2.67;;
71558;SDS011;59382;43.852;25.952;2023-12-07T09:30:54;6.10;;;4.03;;
71558;SDS011;59382;43.852;25.952;2023-12-07T09:33:19;3.92;;;2.65;;
71558;SDS011;59382;43.852;25.952;2023-12-07T09:35:45;4.70;;;2.40;;
71558;SDS011;59382;43.852;25.952;2023-12-07T09:38:11;3.33;;;2.75;;
71558;SDS011;59382;43.852;25.952;2023-12-07T09:40:36;3.78;;;3.05;;
71558;SDS011;59382;43.852;25.952;2023-12-07T09:43:02;3.47;;;2.60;;
71558;SDS011;59382;43.852;25.952;2023-12-07T09:45:27;5.38;;;2.55;;
71558;SDS011;59382;43.852;25.952;2023-12-07T09:47:53;3.03;;;2.75;;
71558;SDS011;59382;43.852;25.952;2023-12-07T09:50:21;4.80;;;2.63;;
71558;SDS011;59382;43.852;25.952;2023-12-07T09:52:48;4.68;;;3.10;;
71558;SDS011;59382;43.852;25.952;2023-12-07T09:55:16;4.20;;;3.00;;
71558;SDS011;59382;43.852;25.952;2023-12-07T09:57:43;4.22;;;2.53;;
71558;SDS011;59382;43.852;25.952;2023-12-07T10:00:08;4.72;;;2.97;;
71558;SDS011;59382;43.852;25.952;2023-12-07T10:02:44;7.05;;;3.47;;
71558;SDS011;59382;43.852;25.952;2023-12-07T10:05:13;3.38;;;1.80;;
71558;SDS011;59382;43.852;25.952;2023-12-07T10:07:43;4.93;;;2.58;;
71558;SDS011;59382;43.852;25.952;2023-12-07T10:10:11;4.50;;;3.17;;
71558;SDS011;59382;43.852;25.952;2023-12-07T10:12:44;6.50;;;2.38;;
71558;SDS011;59382;43.852;25.952;2023-12-07T10:15:14;5.10;;;2.80;;
71558;SDS011;59382;43.852;25.952;2023-12-07T10:17:57;9.20;;;3.47;;
71558;SDS011;59382;43.852;25.952;2023-12-07T10:20:27;8.57;;;4.50;;
71558;SDS011;59382;43.852;25.952;2023-12-07T10:23:01;5.57;;;3.28;;
71558;SDS011;59382;43.852;25.952;2023-12-07T10:27:56;7.05;;;4.90;;
71558;SDS011;59382;43.852;25.952;2023-12-07T10:30:22;4.47;;;3.08;;
71558;SDS011;59382;43.852;25.952;2023-12-07T10:32:51;6.38;;;3.30;;
71558;SDS011;59382;43.852;25.952;2023-12-07T10:35:18;4.25;;;2.72;;
71558;SDS011;59382;43.852;25.952;2023-12-07T10:37:47;4.00;;;2.97;;
71558;SDS011;59382;43.852;25.952;2023-12-07T10:40:16;3.42;;;2.63;;
71558;SDS011;59382;43.852;25.952;2023-12-07T10:42:42;6.32;;;3.45;;
71558;SDS011;59382;43.852;25.952;2023-12-07T10:45:15;4.32;;;2.78;;
71558;SDS011;59382;43.852;25.952;2023-12-07T10:47:43;4.03;;;3.22;;
71558;SDS011;59382;43.852;25.952;2023-12-07T10:50:09;3.10;;;2.70;;
71558;SDS011;59382;43.852;25.952;2023-12-07T10:52:48;3.88;;;2.42;;
71558;SDS011;59382;43.852;25.952;2023-12-07T10:55:20;4.45;;;2.95;;
71558;SDS011;59382;43.852;25.952;2023-12-07T10:57:52;4.20;;;3.45;;
71558;SDS011;59382;43.852;25.952;2023-12-07T11:00:21;3.70;;;2.67;;
71558;SDS011;59382;43.852;25.952;2023-12-07T11:03:02;4.00;;;3.55;;
71558;SDS011;59382;43.852;25.952;2023-12-07T11:05:31;4.95;;;2.88;;
71558;SDS011;59382;43.852;25.952;2023-12-07T11:08:05;19.05;;;9.18;;
71558;SDS011;59382;43.852;25.952;2023-12-07T11:13:23;5.63;;;4.97;;
71558;SDS011;59382;43.852;25.952;2023-12-07T11:15:57;4.40;;;2.40;;
71558;SDS011;59382;43.852;25.952;2023-12-07T11:18:25;3.53;;;2.50;;
71558;SDS011;59382;43.852;25.952;2023-12-07T11:20:57;3.00;;;2.10;;
71558;SDS011;59382;43.852;25.952;2023-12-07T11:23:27;3.72;;;2.97;;
71558;SDS011;59382;43.852;25.952;2023-12-07T11:25:57;4.75;;;3.45;;
71558;SDS011;59382;43.852;25.952;2023-12-07T11:28:33;5.05;;;3.95;;
71558;SDS011;59382;43.852;25.952;2023-12-07T11:31:00;4.65;;;3.05;;
71558;SDS011;59382;43.852;25.952;2023-12-07T11:33:28;5.78;;;3.70;;
71558;SDS011;59382;43.852;25.952;2023-12-07T11:36:06;6.60;;;2.95;;
71558;SDS011;59382;43.852;25.952;2023-12-07T11:38:37;2.90;;;2.60;;
71558;SDS011;59382;43.852;25.952;2023-12-07T11:41:03;5.43;;;2.65;;
71558;SDS011;59382;43.852;25.952;2023-12-07T11:45:58;4.25;;;3.15;;
71558;SDS011;59382;43.852;25.952;2023-12-07T11:48:24;4.45;;;3.15;;
71558;SDS011;59382;43.852;25.952;2023-12-07T11:50:59;8.13;;;3.17;;
71558;SDS011;59382;43.852;25.952;2023-12-07T11:53:29;3.92;;;2.55;;
71558;SDS011;59382;43.852;25.952;2023-12-07T11:55:59;6.00;;;2.95;;
71558;SDS011;59382;43.852;25.952;2023-12-07T11:58:26;4.70;;;2.63;;
71558;SDS011;59382;43.852;25.952;2023-12-07T12:00:55;4.25;;;2.78;;
71558;SDS011;59382;43.852;25.952;2023-12-07T12:03:22;5.45;;;2.63;;
71558;SDS011;59382;43.852;25.952;2023-12-07T12:05:48;2.90;;;2.55;;
71558;SDS011;59382;43.852;25.952;2023-12-07T12:08:15;4.50;;;2.97;;
71558;SDS011;59382;43.852;25.952;2023-12-07T12:10:45;4.25;;;2.85;;
71558;SDS011;59382;43.852;25.952;2023-12-07T12:13:11;4.32;;;2.97;;
71558;SDS011;59382;43.852;25.952;2023-12-07T12:15:41;2.83;;;2.33;;
71558;SDS011;59382;43.852;25.952;2023-12-07T12:18:07;4.43;;;2.85;;
71558;SDS011;59382;43.852;25.952;2023-12-07T12:20:34;3.60;;;2.72;;
71558;SDS011;59382;43.852;25.952;2023-12-07T12:23:00;18.92;;;3.55;;
71558;SDS011;59382;43.852;25.952;2023-12-07T12:25:27;6.97;;;4.03;;
71558;SDS011;59382;43.852;25.952;2023-12-07T12:27:54;3.78;;;2.80;;
71558;SDS011;59382;43.852;25.952;2023-12-07T12:30:21;5.82;;;3.25;;
71558;SDS011;59382;43.852;25.952;2023-12-07T12:32:49;6.53;;;3.70;;
71558;SDS011;59382;43.852;25.952;2023-12-07T12:35:16;4.70;;;3.00;;
71558;SDS011;59382;43.852;25.952;2023-12-07T12:37:45;6.07;;;3.40;;
71558;SDS011;59382;43.852;25.952;2023-12-07T12:40:12;7.10;;;3.45;;
71558;SDS011;59382;43.852;25.952;2023-12-07T12:42:46;5.70;;;3.25;;
71558;SDS011;59382;43.852;25.952;2023-12-07T12:45:14;8.30;;;4.13;;
71558;SDS011;59382;43.852;25.952;2023-12-07T12:47:42;8.98;;;4.93;;
71558;SDS011;59382;43.852;25.952;2023-12-07T12:50:11;13.35;;;8.02;;
71558;SDS011;59382;43.852;25.952;2023-12-07T12:52:41;14.80;;;7.88;;
71558;SDS011;59382;43.852;25.952;2023-12-07T12:55:08;14.48;;;6.57;;
71558;SDS011;59382;43.852;25.952;2023-12-07T12:57:35;12.10;;;6.30;;
71558;SDS011;59382;43.852;25.952;2023-12-07T13:00:02;13.52;;;5.35;;
71558;SDS011;59382;43.852;25.952;2023-12-07T13:02:28;9.18;;;5.20;;
71558;SDS011;59382;43.852;25.952;2023-12-07T13:04:54;5.70;;;4.20;;
71558;SDS011;59382;43.852;25.952;2023-12-07T13:07:21;5.72;;;4.18;;
71558;SDS011;59382;43.852;25.952;2023-12-07T13:09:49;5.40;;;3.17;;
71558;SDS011;59382;43.852;25.952;2023-12-07T13:12:15;4.50;;;3.67;;
71558;SDS011;59382;43.852;25.952;2023-12-07T13:14:45;5.45;;;3.13;;
71558;SDS011;59382;43.852;25.952;2023-12-07T13:17:11;5.47;;;3.35;;
71558;SDS011;59382;43.852;25.952;2023-12-07T13:19:39;5.28;;;3.70;;
71558;SDS011;59382;43.852;25.952;2023-12-07T13:22:07;7.22;;;4.85;;
71558;SDS011;59382;43.852;25.952;2023-12-07T13:24:35;6.00;;;3.92;;
71558;SDS011;59382;43.852;25.952;2023-12-07T13:27:01;11.98;;;5.25;;
71558;SDS011;59382;43.852;25.952;2023-12-07T13:29:28;8.55;;;5.47;;
71558;SDS011;59382;43.852;25.952;2023-12-07T13:32:01;10.00;;;4.32;;
71558;SDS011;59382;43.852;25.952;2023-12-07T13:34:27;7.63;;;4.25;;
71558;SDS011;59382;43.852;25.952;2023-12-07T13:36:53;4.45;;;3.33;;
71558;SDS011;59382;43.852;25.952;2023-12-07T13:39:19;5.97;;;3.75;;
71558;SDS011;59382;43.852;25.952;2023-12-07T13:41:47;10.35;;;4.40;;
71558;SDS011;59382;43.852;25.952;2023-12-07T13:44:15;10.90;;;4.55;;
71558;SDS011;59382;43.852;25.952;2023-12-07T13:46:43;7.95;;;4.97;;
71558;SDS011;59382;43.852;25.952;2023-12-07T13:49:13;7.93;;;5.43;;
71558;SDS011;59382;43.852;25.952;2023-12-07T13:51:39;6.45;;;4.97;;
71558;SDS011;59382;43.852;25.952;2023-12-07T13:54:08;8.13;;;3.88;;
71558;SDS011;59382;43.852;25.952;2023-12-07T13:56:35;4.60;;;3.45;;
71558;SDS011;59382;43.852;25.952;2023-12-07T13:59:00;4.90;;;2.97;;
71558;SDS011;59382;43.852;25.952;2023-12-07T14:01:27;4.90;;;3.67;;
71558;SDS011;59382;43.852;25.952;2023-12-07T14:03:53;4.15;;;3.13;;
71558;SDS011;59382;43.852;25.952;2023-12-07T14:06:22;9.98;;;3.65;;
71558;SDS011;59382;43.852;25.952;2023-12-07T14:08:55;5.78;;;3.42;;
71558;SDS011;59382;43.852;25.952;2023-12-07T14:11:20;5.53;;;3.30;;
71558;SDS011;59382;43.852;25.952;2023-12-07T14:13:46;6.43;;;3.20;;
71558;SDS011;59382;43.852;25.952;2023-12-07T14:16:16;8.50;;;3.70;;
71558;SDS011;59382;43.852;25.952;2023-12-07T14:18:45;7.28;;;3.60;;
71558;SDS011;59382;43.852;25.952;2023-12-07T14:21:10;5.72;;;3.47;;
71558;SDS011;59382;43.852;25.952;2023-12-07T14:23:41;8.10;;;4.32;;
71558;SDS011;59382;43.852;25.952;2023-12-07T14:26:09;7.05;;;3.67;;
71558;SDS011;59382;43.852;25.952;2023-12-07T14:28:38;5.97;;;4.10;;
71558;SDS011;59382;43.852;25.952;2023-12-07T14:31:05;7.30;;;3.78;;
71558;SDS011;59382;43.852;25.952;2023-12-07T14:33:36;11.90;;;6.82;;
71558;SDS011;59382;43.852;25.952;2023-12-07T14:36:04;10.88;;;5.95;;
71558;SDS011;59382;43.852;25.952;2023-12-07T14:38:30;10.93;;;6.55;;
71558;SDS011;59382;43.852;25.952;2023-12-07T14:40:57;6.55;;;4.10;;
71558;SDS011;59382;43.852;25.952;2023-12-07T14:43:24;7.38;;;4.40;;